Terminal Aerodrome Forecast
Issued by NWS Birmingham, AL

Home | Current Version | Previous Version | Text Only | Print | Product List | Glossary On
Versions: 1 2 3 4 5 6 7 8 9 10 11 12
064
FTUS44 KBMX 031737
TAFBHM
TAF
KBHM 031737Z 0318/0418 07006KT P6SM -RA OVC110
     FM041200 09009KT 5SM -RA BR BKN020 OVC030=

USA.gov is the U.S. government's official web portal to all federal, state and local government web resources and services.